sensor_id;sensor_type;location;lat;lon;timestamp;pressure;altitude;pressure_sealevel;temperature;humidity
43707;BME280;61348;53.392;-6.248;2023-04-05T00:02:16;101087.13;;;10.32;90.33
43707;BME280;61348;53.392;-6.248;2023-04-05T00:04:44;101085.50;;;10.31;90.40
43707;BME280;61348;53.392;-6.248;2023-04-05T00:07:18;101082.72;;;10.31;90.48
43707;BME280;61348;53.392;-6.248;2023-04-05T00:09:47;101086.63;;;10.30;90.66
43707;BME280;61348;53.392;-6.248;2023-04-05T00:12:15;101080.63;;;10.28;90.64
43707;BME280;61348;53.392;-6.248;2023-04-05T00:14:41;101077.41;;;10.26;90.83
43707;BME280;61348;53.392;-6.248;2023-04-05T00:17:08;101068.28;;;10.26;90.99
43707;BME280;61348;53.392;-6.248;2023-04-05T00:19:37;101069.09;;;10.26;90.92
43707;BME280;61348;53.392;-6.248;2023-04-05T00:22:04;101064.38;;;10.27;90.97
43707;BME280;61348;53.392;-6.248;2023-04-05T00:24:31;101066.31;;;10.26;91.19
43707;BME280;61348;53.392;-6.248;2023-04-05T00:26:59;101056.06;;;10.27;90.94
43707;BME280;61348;53.392;-6.248;2023-04-05T00:29:27;101052.50;;;10.26;91.24
43707;BME280;61348;53.392;-6.248;2023-04-05T00:31:54;101058.03;;;10.26;91.15
43707;BME280;61348;53.392;-6.248;2023-04-05T00:34:22;101055.25;;;10.26;91.34
43707;BME280;61348;53.392;-6.248;2023-04-05T00:36:48;101057.22;;;10.26;91.38
43707;BME280;61348;53.392;-6.248;2023-04-05T00:39:15;101048.91;;;10.26;91.42
43707;BME280;61348;53.392;-6.248;2023-04-05T00:41:42;101046.94;;;10.26;91.47
43707;BME280;61348;53.392;-6.248;2023-04-05T00:44:12;101038.66;;;10.26;91.71
43707;BME280;61348;53.392;-6.248;2023-04-05T00:46:39;101039.78;;;10.25;91.63
43707;BME280;61348;53.392;-6.248;2023-04-05T00:49:06;101027.91;;;10.25;91.88
43707;BME280;61348;53.392;-6.248;2023-04-05T00:51:33;101027.13;;;10.24;91.85
43707;BME280;61348;53.392;-6.248;2023-04-05T00:54:00;101029.53;;;10.26;91.93
43707;BME280;61348;53.392;-6.248;2023-04-05T00:56:30;101022.06;;;10.26;92.05
43707;BME280;61348;53.392;-6.248;2023-04-05T00:58:57;101024.81;;;10.26;92.22
43707;BME280;61348;53.392;-6.248;2023-04-05T01:01:24;101022.06;;;10.26;92.07
43707;BME280;61348;53.392;-6.248;2023-04-05T01:03:58;101019.28;;;10.26;92.14
43707;BME280;61348;53.392;-6.248;2023-04-05T01:06:48;101015.34;;;10.27;92.15
43707;BME280;61348;53.392;-6.248;2023-04-05T01:12:05;101012.59;;;10.27;92.16
43707;BME280;61348;53.392;-6.248;2023-04-05T01:14:45;101019.28;;;10.26;92.54
43707;BME280;61348;53.392;-6.248;2023-04-05T01:17:12;101010.97;;;10.26;92.55
43707;BME280;61348;53.392;-6.248;2023-04-05T01:19:39;101009.03;;;10.27;92.40
43707;BME280;61348;53.392;-6.248;2023-04-05T01:30:29;101011.09;;;10.30;92.57
43707;BME280;61348;53.392;-6.248;2023-04-05T01:33:13;101002.78;;;10.30;92.58
43707;BME280;61348;53.392;-6.248;2023-04-05T01:35:49;101011.91;;;10.30;92.60
43707;BME280;61348;53.392;-6.248;2023-04-05T01:38:23;101010.78;;;10.31;92.69
43707;BME280;61348;53.392;-6.248;2023-04-05T01:40:53;101008.81;;;10.32;92.62
43707;BME280;61348;53.392;-6.248;2023-04-05T01:43:20;101005.25;;;10.31;92.68
43707;BME280;61348;53.392;-6.248;2023-04-05T01:45:47;101005.25;;;10.31;92.92
43707;BME280;61348;53.392;-6.248;2023-04-05T01:48:14;100999.03;;;10.34;92.91
43707;BME280;61348;53.392;-6.248;2023-04-05T01:50:41;101007.00;;;10.36;92.85
43707;BME280;61348;53.392;-6.248;2023-04-05T01:53:09;101002.28;;;10.36;93.10
43707;BME280;61348;53.392;-6.248;2023-04-05T01:55:35;100998.69;;;10.36;93.14
43707;BME280;61348;53.392;-6.248;2023-04-05T01:58:02;101006.19;;;10.35;93.13
43707;BME280;61348;53.392;-6.248;2023-04-05T02:00:29;100993.97;;;10.36;93.22
43707;BME280;61348;53.392;-6.248;2023-04-05T02:02:56;100986.81;;;10.35;93.18
43707;BME280;61348;53.392;-6.248;2023-04-05T02:05:23;100976.91;;;10.34;93.37
43707;BME280;61348;53.392;-6.248;2023-04-05T02:07:49;100975.28;;;10.33;93.46
43707;BME280;61348;53.392;-6.248;2023-04-05T02:10:17;100968.91;;;10.33;93.54
43707;BME280;61348;53.392;-6.248;2023-04-05T02:12:44;100965.84;;;10.34;93.40
43707;BME280;61348;53.392;-6.248;2023-04-05T02:15:10;100969.41;;;10.35;93.54
43707;BME280;61348;53.392;-6.248;2023-04-05T02:17:37;100971.38;;;10.34;93.60
43707;BME280;61348;53.392;-6.248;2023-04-05T02:20:06;100971.38;;;10.34;93.71
43707;BME280;61348;53.392;-6.248;2023-04-05T02:22:34;100982.44;;;10.34;93.74
43707;BME280;61348;53.392;-6.248;2023-04-05T02:25:02;100965.47;;;10.36;93.93
43707;BME280;61348;53.392;-6.248;2023-04-05T02:27:31;100958.00;;;10.36;93.89
43707;BME280;61348;53.392;-6.248;2023-04-05T02:29:57;100959.63;;;10.37;94.03
43707;BME280;61348;53.392;-6.248;2023-04-05T02:32:24;100950.50;;;10.37;93.98
43707;BME280;61348;53.392;-6.248;2023-04-05T02:34:51;100957.19;;;10.36;94.05
43707;BME280;61348;53.392;-6.248;2023-04-05T02:37:19;100952.00;;;10.34;94.16
43707;BME280;61348;53.392;-6.248;2023-04-05T02:39:46;100952.00;;;10.34;94.14
43707;BME280;61348;53.392;-6.248;2023-04-05T02:42:12;100942.06;;;10.33;94.35
43707;BME280;61348;53.392;-6.248;2023-04-05T02:44:39;100938.47;;;10.33;94.35
43707;BME280;61348;53.392;-6.248;2023-04-05T02:47:06;100928.56;;;10.32;94.41
43707;BME280;61348;53.392;-6.248;2023-04-05T02:49:33;100939.63;;;10.32;94.40
43707;BME280;61348;53.392;-6.248;2023-04-05T02:51:59;100936.88;;;10.32;94.58
43707;BME280;61348;53.392;-6.248;2023-04-05T02:54:26;100931.00;;;10.33;94.92
43707;BME280;61348;53.392;-6.248;2023-04-05T02:56:53;100927.09;;;10.34;94.71
43707;BME280;61348;53.392;-6.248;2023-04-05T02:59:23;100927.09;;;10.34;94.68
43707;BME280;61348;53.392;-6.248;2023-04-05T03:01:50;100929.84;;;10.34;94.73
43707;BME280;61348;53.392;-6.248;2023-04-05T03:04:17;100927.91;;;10.35;94.86
43707;BME280;61348;53.392;-6.248;2023-04-05T03:06:43;100912.91;;;10.36;94.70
43707;BME280;61348;53.392;-6.248;2023-04-05T03:09:14;100914.53;;;10.37;94.85
43707;BME280;61348;53.392;-6.248;2023-04-05T03:11:40;100913.72;;;10.36;94.91
43707;BME280;61348;53.392;-6.248;2023-04-05T03:14:07;100919.25;;;10.36;94.83
43707;BME280;61348;53.392;-6.248;2023-04-05T03:16:34;100912.06;;;10.35;95.05
43707;BME280;61348;53.392;-6.248;2023-04-05T03:19:03;100913.72;;;10.36;95.22
43707;BME280;61348;53.392;-6.248;2023-04-05T03:21:31;100909.00;;;10.37;95.23
43707;BME280;61348;53.392;-6.248;2023-04-05T03:23:59;100907.81;;;10.38;95.41
43707;BME280;61348;53.392;-6.248;2023-04-05T03:26:26;100907.34;;;10.36;95.36
43707;BME280;61348;53.392;-6.248;2023-04-05T03:28:53;100908.19;;;10.36;95.42
43707;BME280;61348;53.392;-6.248;2023-04-05T03:31:19;100898.25;;;10.35;95.34
43707;BME280;61348;53.392;-6.248;2023-04-05T03:33:46;100900.22;;;10.35;95.58
43707;BME280;61348;53.392;-6.248;2023-04-05T03:36:13;100895.47;;;10.35;95.79
43707;BME280;61348;53.392;-6.248;2023-04-05T03:38:43;100899.41;;;10.34;95.76
43707;BME280;61348;53.392;-6.248;2023-04-05T03:41:11;100897.78;;;10.33;95.86
43707;BME280;61348;53.392;-6.248;2023-04-05T03:43:38;100893.06;;;10.34;95.96
43707;BME280;61348;53.392;-6.248;2023-04-05T03:46:04;100891.09;;;10.34;96.02
43707;BME280;61348;53.392;-6.248;2023-04-05T03:48:31;100898.59;;;10.34;95.96
43707;BME280;61348;53.392;-6.248;2023-04-05T03:50:58;100888.34;;;10.34;96.03
43707;BME280;61348;53.392;-6.248;2023-04-05T03:53:25;100892.25;;;10.33;96.14
43707;BME280;61348;53.392;-6.248;2023-04-05T03:55:55;100896.97;;;10.33;96.28
43707;BME280;61348;53.392;-6.248;2023-04-05T03:58:22;100886.72;;;10.33;96.37
43707;BME280;61348;53.392;-6.248;2023-04-05T04:00:48;100883.13;;;10.33;96.40
43707;BME280;61348;53.392;-6.248;2023-04-05T04:03:15;100882.00;;;10.34;96.49
43707;BME280;61348;53.392;-6.248;2023-04-05T04:05:42;100884.41;;;10.35;96.65
43707;BME280;61348;53.392;-6.248;2023-04-05T04:08:10;100874.50;;;10.34;96.83
43707;BME280;61348;53.392;-6.248;2023-04-05T04:10:36;100875.31;;;10.35;96.87
43707;BME280;61348;53.392;-6.248;2023-04-05T04:13:05;100878.88;;;10.35;96.83
43707;BME280;61348;53.392;-6.248;2023-04-05T04:15:32;100878.88;;;10.35;96.97
43707;BME280;61348;53.392;-6.248;2023-04-05T04:17:58;100880.50;;;10.36;97.24
43707;BME280;61348;53.392;-6.248;2023-04-05T04:20:25;100874.97;;;10.36;97.18
43707;BME280;61348;53.392;-6.248;2023-04-05T04:22:52;100874.97;;;10.36;97.29
43707;BME280;61348;53.392;-6.248;2023-04-05T04:25:19;100868.63;;;10.36;97.40
43707;BME280;61348;53.392;-6.248;2023-04-05T04:27:47;100874.97;;;10.36;97.50
43707;BME280;61348;53.392;-6.248;2023-04-05T04:30:15;100870.56;;;10.35;97.76
43707;BME280;61348;53.392;-6.248;2023-04-05T04:32:42;100870.25;;;10.37;97.81
43707;BME280;61348;53.392;-6.248;2023-04-05T04:35:23;100863.06;;;10.36;97.76
43707;BME280;61348;53.392;-6.248;2023-04-05T04:37:55;100860.31;;;10.36;98.06
43707;BME280;61348;53.392;-6.248;2023-04-05T04:40:35;100874.16;;;10.36;98.10
43707;BME280;61348;53.392;-6.248;2023-04-05T04:43:10;100867.81;;;10.35;98.24
43707;BME280;61348;53.392;-6.248;2023-04-05T04:45:40;100862.25;;;10.35;98.25
43707;BME280;61348;53.392;-6.248;2023-04-05T04:48:07;100868.28;;;10.37;98.34
43707;BME280;61348;53.392;-6.248;2023-04-05T04:50:34;100861.94;;;10.37;98.47
43707;BME280;61348;53.392;-6.248;2023-04-05T04:53:01;100863.91;;;10.36;98.50
43707;BME280;61348;53.392;-6.248;2023-04-05T04:55:28;100862.75;;;10.37;98.84
43707;BME280;61348;53.392;-6.248;2023-04-05T04:57:55;100861.59;;;10.38;98.80
43707;BME280;61348;53.392;-6.248;2023-04-05T05:00:22;100857.22;;;10.37;98.90
43707;BME280;61348;53.392;-6.248;2023-04-05T05:02:50;100865.53;;;10.37;99.02
43707;BME280;61348;53.392;-6.248;2023-04-05T05:05:18;100863.91;;;10.36;99.25
43707;BME280;61348;53.392;-6.248;2023-04-05T05:07:48;100848.09;;;10.37;99.18
43707;BME280;61348;53.392;-6.248;2023-04-05T05:10:16;100850.88;;;10.37;99.33
43707;BME280;61348;53.392;-6.248;2023-04-05T05:12:44;100849.69;;;10.38;99.24
43707;BME280;61348;53.392;-6.248;2023-04-05T05:15:11;100844.53;;;10.36;99.49
43707;BME280;61348;53.392;-6.248;2023-04-05T05:17:38;100844.53;;;10.36;99.69
43707;BME280;61348;53.392;-6.248;2023-04-05T05:20:06;100826.78;;;10.37;99.63
43707;BME280;61348;53.392;-6.248;2023-04-05T05:22:37;100840.63;;;10.37;99.87
43707;BME280;61348;53.392;-6.248;2023-04-05T05:25:05;100827.56;;;10.38;100.00
43707;BME280;61348;53.392;-6.248;2023-04-05T05:27:32;100832.31;;;10.37;99.94
43707;BME280;61348;53.392;-6.248;2023-04-05T05:29:59;100824.00;;;10.37;100.00
43707;BME280;61348;53.392;-6.248;2023-04-05T05:32:27;100831.16;;;10.38;100.00
43707;BME280;61348;53.392;-6.248;2023-04-05T05:34:54;100828.38;;;10.38;100.00
43707;BME280;61348;53.392;-6.248;2023-04-05T05:37:28;100824.47;;;10.39;100.00
43707;BME280;61348;53.392;-6.248;2023-04-05T05:39:55;100826.44;;;10.39;100.00
43707;BME280;61348;53.392;-6.248;2023-04-05T05:42:22;100827.25;;;10.39;100.00
43707;BME280;61348;53.392;-6.248;2023-04-05T05:44:49;100827.69;;;10.42;100.00
43707;BME280;61348;53.392;-6.248;2023-04-05T05:47:17;100838.78;;;10.42;100.00
43707;BME280;61348;53.392;-6.248;2023-04-05T05:49:44;100834.03;;;10.42;100.00
43707;BME280;61348;53.392;-6.248;2023-04-05T05:52:10;100837.63;;;10.43;100.00
43707;BME280;61348;53.392;-6.248;2023-04-05T05:54:37;100832.91;;;10.43;100.00
43707;BME280;61348;53.392;-6.248;2023-04-05T05:57:04;100838.09;;;10.45;100.00
43707;BME280;61348;53.392;-6.248;2023-04-05T05:59:31;100827.84;;;10.45;100.00
43707;BME280;61348;53.392;-6.248;2023-04-05T06:01:57;100835.78;;;10.47;100.00
43707;BME280;61348;53.392;-6.248;2023-04-05T06:04:24;100838.22;;;10.48;100.00
43707;BME280;61348;53.392;-6.248;2023-04-05T06:06:51;100837.06;;;10.49;100.00
43707;BME280;61348;53.392;-6.248;2023-04-05T06:09:20;100835.09;;;10.50;100.00
43707;BME280;61348;53.392;-6.248;2023-04-05T06:11:52;100830.03;;;10.52;100.00
43707;BME280;61348;53.392;-6.248;2023-04-05T06:14:23;100832.09;;;10.55;100.00
43707;BME280;61348;53.392;-6.248;2023-04-05T06:16:49;100827.84;;;10.57;100.00
43707;BME280;61348;53.392;-6.248;2023-04-05T06:19:16;100831.88;;;10.60;100.00
43707;BME280;61348;53.392;-6.248;2023-04-05T06:21:43;100819.66;;;10.61;100.00
43707;BME280;61348;53.392;-6.248;2023-04-05T06:24:09;100826.81;;;10.62;100.00
43707;BME280;61348;53.392;-6.248;2023-04-05T06:26:38;100832.47;;;10.65;100.00
43707;BME280;61348;53.392;-6.248;2023-04-05T06:29:05;100822.22;;;10.66;100.00
43707;BME280;61348;53.392;-6.248;2023-04-05T06:31:34;100819.91;;;10.68;100.00
43707;BME280;61348;53.392;-6.248;2023-04-05T06:34:01;100830.28;;;10.71;100.00
43707;BME280;61348;53.392;-6.248;2023-04-05T06:36:31;100818.06;;;10.72;100.00
43707;BME280;61348;53.392;-6.248;2023-04-05T06:38:59;100818.53;;;10.74;100.00
43707;BME280;61348;53.392;-6.248;2023-04-05T06:41:26;100819.00;;;10.76;100.00
43707;BME280;61348;53.392;-6.248;2023-04-05T06:43:54;100819.44;;;10.78;100.00
43707;BME280;61348;53.392;-6.248;2023-04-05T06:46:22;100816.00;;;10.81;100.00
43707;BME280;61348;53.392;-6.248;2023-04-05T06:48:50;100817.25;;;10.83;100.00
43707;BME280;61348;53.392;-6.248;2023-04-05T06:51:17;100815.75;;;10.86;100.00
43707;BME280;61348;53.392;-6.248;2023-04-05T06:53:44;100813.47;;;10.88;100.00
43707;BME280;61348;53.392;-6.248;2023-04-05T06:56:11;100816.03;;;10.93;100.00
43707;BME280;61348;53.392;-6.248;2023-04-05T06:58:38;100807.81;;;10.96;100.00
43707;BME280;61348;53.392;-6.248;2023-04-05T07:01:05;100811.50;;;11.00;100.00
43707;BME280;61348;53.392;-6.248;2023-04-05T07:03:33;100810.47;;;11.05;100.00
43707;BME280;61348;53.392;-6.248;2023-04-05T07:06:00;100815.44;;;11.12;100.00
43707;BME280;61348;53.392;-6.248;2023-04-05T07:08:28;100816.81;;;11.18;100.00
43707;BME280;61348;53.392;-6.248;2023-04-05T07:10:54;100813.78;;;11.23;100.00
43707;BME280;61348;53.392;-6.248;2023-04-05T07:13:22;100819.59;;;11.30;100.00
43707;BME280;61348;53.392;-6.248;2023-04-05T07:15:51;100825.69;;;11.35;100.00
43707;BME280;61348;53.392;-6.248;2023-04-05T07:18:18;100811.59;;;11.40;100.00
43707;BME280;61348;53.392;-6.248;2023-04-05T07:20:46;100812.06;;;11.42;100.00
43707;BME280;61348;53.392;-6.248;2023-04-05T07:23:13;100815.28;;;11.44;100.00
43707;BME280;61348;53.392;-6.248;2023-04-05T07:25:40;100805.00;;;11.45;100.00
43707;BME280;61348;53.392;-6.248;2023-04-05T07:28:07;100811.81;;;11.47;100.00
43707;BME280;61348;53.392;-6.248;2023-04-05T07:30:33;100804.31;;;11.48;100.00
43707;BME280;61348;53.392;-6.248;2023-04-05T07:33:01;100803.94;;;11.49;100.00
43707;BME280;61348;53.392;-6.248;2023-04-05T07:35:28;100809.97;;;11.51;100.00
43707;BME280;61348;53.392;-6.248;2023-04-05T07:37:55;100806.00;;;11.52;100.00
43707;BME280;61348;53.392;-6.248;2023-04-05T07:40:22;100804.50;;;11.55;100.00
43707;BME280;61348;53.392;-6.248;2023-04-05T07:42:49;100803.81;;;11.58;100.00
43707;BME280;61348;53.392;-6.248;2023-04-05T07:45:16;100807.84;;;11.60;100.00
43707;BME280;61348;53.392;-6.248;2023-04-05T07:47:42;100808.66;;;11.61;100.00
43707;BME280;61348;53.392;-6.248;2023-04-05T07:50:09;100795.25;;;11.63;100.00
43707;BME280;61348;53.392;-6.248;2023-04-05T07:52:41;100810.38;;;11.66;100.00
43707;BME280;61348;53.392;-6.248;2023-04-05T07:55:08;100791.41;;;11.68;100.00
43707;BME280;61348;53.392;-6.248;2023-04-05T07:57:36;100795.50;;;11.70;100.00
43707;BME280;61348;53.392;-6.248;2023-04-05T08:00:04;100794.44;;;11.75;100.00
43707;BME280;61348;53.392;-6.248;2023-04-05T08:02:36;100793.03;;;11.81;100.00
43707;BME280;61348;53.392;-6.248;2023-04-05T08:05:04;100789.66;;;11.87;100.00
43707;BME280;61348;53.392;-6.248;2023-04-05T08:07:31;100787.44;;;11.93;100.00
43707;BME280;61348;53.392;-6.248;2023-04-05T08:09:58;100779.66;;;11.98;100.00
43707;BME280;61348;53.392;-6.248;2023-04-05T08:12:26;100787.75;;;12.03;100.00
43707;BME280;61348;53.392;-6.248;2023-04-05T08:14:53;100788.75;;;12.11;100.00
43707;BME280;61348;53.392;-6.248;2023-04-05T08:17:20;100786.63;;;12.20;100.00
43707;BME280;61348;53.392;-6.248;2023-04-05T08:19:47;100779.72;;;12.30;100.00
43707;BME280;61348;53.392;-6.248;2023-04-05T08:22:14;100785.13;;;12.38;100.00
43707;BME280;61348;53.392;-6.248;2023-04-05T08:24:43;100783.44;;;12.49;100.00
43707;BME280;61348;53.392;-6.248;2023-04-05T08:27:10;100782.53;;;12.61;100.00
43707;BME280;61348;53.392;-6.248;2023-04-05T08:29:37;100782.75;;;12.68;100.00
43707;BME280;61348;53.392;-6.248;2023-04-05T08:32:04;100788.91;;;12.77;100.00
43707;BME280;61348;53.392;-6.248;2023-04-05T08:34:31;100784.44;;;12.88;100.00
43707;BME280;61348;53.392;-6.248;2023-04-05T08:36:58;100786.31;;;13.00;100.00
43707;BME280;61348;53.392;-6.248;2023-04-05T08:39:25;100793.19;;;13.06;100.00
43707;BME280;61348;53.392;-6.248;2023-04-05T08:42:12;100781.03;;;13.10;100.00
43707;BME280;61348;53.392;-6.248;2023-04-05T08:44:43;100782.63;;;13.11;100.00
43707;BME280;61348;53.392;-6.248;2023-04-05T08:47:11;100789.00;;;13.12;100.00
43707;BME280;61348;53.392;-6.248;2023-04-05T08:49:44;100785.84;;;13.13;100.00
43707;BME280;61348;53.392;-6.248;2023-04-05T08:52:10;100785.50;;;13.15;100.00
43707;BME280;61348;53.392;-6.248;2023-04-05T08:54:37;100793.03;;;13.14;100.00
43707;BME280;61348;53.392;-6.248;2023-04-05T08:57:05;100783.53;;;13.15;99.92
43707;BME280;61348;53.392;-6.248;2023-04-05T08:59:36;100772.41;;;13.15;99.87
43707;BME280;61348;53.392;-6.248;2023-04-05T09:02:07;100774.38;;;13.15;99.83
43707;BME280;61348;53.392;-6.248;2023-04-05T09:04:37;100789.00;;;13.12;99.52
43707;BME280;61348;53.392;-6.248;2023-04-05T09:07:12;100780.66;;;13.12;99.37
43707;BME280;61348;53.392;-6.248;2023-04-05T09:09:41;100780.28;;;13.13;99.26
43707;BME280;61348;53.392;-6.248;2023-04-05T09:12:10;100786.66;;;13.14;99.05
43707;BME280;61348;53.392;-6.248;2023-04-05T09:14:40;100786.75;;;13.17;98.89
43707;BME280;61348;53.392;-6.248;2023-04-05T09:17:07;100794.81;;;13.22;98.51
43707;BME280;61348;53.392;-6.248;2023-04-05T09:19:35;100786.19;;;13.27;98.24
43707;BME280;61348;53.392;-6.248;2023-04-05T09:22:08;100792.00;;;13.38;97.93
43707;BME280;61348;53.392;-6.248;2023-04-05T09:24:43;100783.78;;;13.45;97.72
43707;BME280;61348;53.392;-6.248;2023-04-05T09:29:40;100788.34;;;13.53;97.03
43707;BME280;61348;53.392;-6.248;2023-04-05T09:32:09;100785.94;;;13.52;96.92
43707;BME280;61348;53.392;-6.248;2023-04-05T09:34:37;100789.09;;;13.50;96.83
43707;BME280;61348;53.392;-6.248;2023-04-05T09:39:41;100785.22;;;13.55;96.75
43707;BME280;61348;53.392;-6.248;2023-04-05T09:42:13;100782.47;;;13.74;96.73
43707;BME280;61348;53.392;-6.248;2023-04-05T09:44:58;100792.34;;;13.90;95.80
43707;BME280;61348;53.392;-6.248;2023-04-05T09:47:32;100786.75;;;13.90;95.51
43707;BME280;61348;53.392;-6.248;2023-04-05T09:52:42;100786.72;;;13.87;95.17
43707;BME280;61348;53.392;-6.248;2023-04-05T09:55:09;100790.66;;;13.86;94.75
43707;BME280;61348;53.392;-6.248;2023-04-05T09:57:37;100789.50;;;13.87;94.63
43707;BME280;61348;53.392;-6.248;2023-04-05T10:00:06;100793.06;;;13.87;94.67
43707;BME280;61348;53.392;-6.248;2023-04-05T10:02:52;100794.69;;;13.88;94.50
43707;BME280;61348;53.392;-6.248;2023-04-05T10:05:22;100790.34;;;13.91;94.50
43707;BME280;61348;53.392;-6.248;2023-04-05T10:07:50;100789.25;;;13.95;94.28
43707;BME280;61348;53.392;-6.248;2023-04-05T10:10:18;100790.56;;;14.01;93.98
43707;BME280;61348;53.392;-6.248;2023-04-05T10:12:46;100785.28;;;14.16;93.93
43707;BME280;61348;53.392;-6.248;2023-04-05T10:15:15;100787.72;;;14.36;93.43
43707;BME280;61348;53.392;-6.248;2023-04-05T10:17:55;100794.78;;;14.53;92.88
43707;BME280;61348;53.392;-6.248;2023-04-05T10:20:27;100782.91;;;14.56;92.42
43707;BME280;61348;53.392;-6.248;2023-04-05T10:23:00;100782.59;;;14.61;92.06
43707;BME280;61348;53.392;-6.248;2023-04-05T10:28:35;100781.09;;;14.67;91.58
43707;BME280;61348;53.392;-6.248;2023-04-05T10:31:14;100783.88;;;14.67;91.18
43707;BME280;61348;53.392;-6.248;2023-04-05T10:34:07;100779.53;;;14.70;90.75
43707;BME280;61348;53.392;-6.248;2023-04-05T10:39:12;100779.16;;;14.94;90.38
43707;BME280;61348;53.392;-6.248;2023-04-05T10:41:52;100774.94;;;15.03;89.90
43707;BME280;61348;53.392;-6.248;2023-04-05T10:44:20;100775.38;;;15.05;89.45
43707;BME280;61348;53.392;-6.248;2023-04-05T10:46:52;100775.47;;;15.12;89.46
43707;BME280;61348;53.392;-6.248;2023-04-05T10:49:36;100779.16;;;15.20;88.79
43707;BME280;61348;53.392;-6.248;2023-04-05T10:52:05;100776.34;;;15.16;88.18
43707;BME280;61348;53.392;-6.248;2023-04-05T10:54:33;100776.75;;;15.18;88.02
43707;BME280;61348;53.392;-6.248;2023-04-05T10:57:05;100772.47;;;15.24;87.96
43707;BME280;61348;53.392;-6.248;2023-04-05T10:59:40;100769.72;;;15.54;87.62
43707;BME280;61348;53.392;-6.248;2023-04-05T11:02:08;100766.97;;;15.88;86.20
43707;BME280;61348;53.392;-6.248;2023-04-05T11:04:35;100767.09;;;15.98;85.33
43707;BME280;61348;53.392;-6.248;2023-04-05T11:07:18;100772.28;;;16.00;85.00
43707;BME280;61348;53.392;-6.248;2023-04-05T11:10:03;100763.28;;;16.13;84.80
43707;BME280;61348;53.392;-6.248;2023-04-05T11:18:27;100761.34;;;16.54;83.06
43707;BME280;61348;53.392;-6.248;2023-04-05T11:20:52;100763.47;;;16.68;82.64
43707;BME280;61348;53.392;-6.248;2023-04-05T11:23:23;100764.66;;;16.67;81.60
43707;BME280;61348;53.392;-6.248;2023-04-05T11:25:53;100755.00;;;16.61;81.59
43707;BME280;61348;53.392;-6.248;2023-04-05T11:28:30;100752.16;;;16.54;81.55
43707;BME280;61348;53.392;-6.248;2023-04-05T11:31:11;100759.38;;;16.58;82.02
43707;BME280;61348;53.392;-6.248;2023-04-05T11:33:53;100756.59;;;16.58;81.41
43707;BME280;61348;53.392;-6.248;2023-04-05T11:36:29;100753.34;;;16.53;80.76
43707;BME280;61348;53.392;-6.248;2023-04-05T11:44:23;100753.50;;;15.97;79.96
43707;BME280;61348;53.392;-6.248;2023-04-05T11:46:52;100750.19;;;15.84;80.35
43707;BME280;61348;53.392;-6.248;2023-04-05T11:49:23;100747.72;;;15.79;80.54
43707;BME280;61348;53.392;-6.248;2023-04-05T11:51:52;100742.81;;;15.69;80.20
43707;BME280;61348;53.392;-6.248;2023-04-05T11:54:31;100742.00;;;15.68;80.65
43707;BME280;61348;53.392;-6.248;2023-04-05T11:56:59;100745.19;;;15.67;80.23
43707;BME280;61348;53.392;-6.248;2023-04-05T11:59:28;100729.97;;;15.61;80.05
43707;BME280;61348;53.392;-6.248;2023-04-05T12:02:00;100732.28;;;15.55;79.83
43707;BME280;61348;53.392;-6.248;2023-04-05T12:04:27;100726.97;;;15.47;79.80
43707;BME280;61348;53.392;-6.248;2023-04-05T12:07:14;100716.88;;;15.39;79.95
43707;BME280;61348;53.392;-6.248;2023-04-05T12:10:04;100723.16;;;15.32;80.05
43707;BME280;61348;53.392;-6.248;2023-04-05T12:12:38;100722.22;;;15.21;79.83
43707;BME280;61348;53.392;-6.248;2023-04-05T12:15:06;100717.31;;;15.14;80.14
43707;BME280;61348;53.392;-6.248;2023-04-05T12:20:11;100716.88;;;15.09;80.26
43707;BME280;61348;53.392;-6.248;2023-04-05T12:22:40;100710.09;;;15.10;80.41
43707;BME280;61348;53.392;-6.248;2023-04-05T12:25:08;100704.16;;;15.11;80.54
43707;BME280;61348;53.392;-6.248;2023-04-05T12:27:34;100710.16;;;15.13;80.38
43707;BME280;61348;53.392;-6.248;2023-04-05T12:32:40;100706.06;;;15.07;80.31
43707;BME280;61348;53.392;-6.248;2023-04-05T12:35:12;100700.44;;;15.04;80.39
43707;BME280;61348;53.392;-6.248;2023-04-05T12:37:39;100702.78;;;14.98;80.50
43707;BME280;61348;53.392;-6.248;2023-04-05T12:40:07;100700.34;;;14.97;80.64
43707;BME280;61348;53.392;-6.248;2023-04-05T12:42:37;100697.13;;;14.95;80.62
43707;BME280;61348;53.392;-6.248;2023-04-05T12:45:09;100691.16;;;14.96;80.72
43707;BME280;61348;53.392;-6.248;2023-04-05T12:47:57;100684.84;;;14.99;80.98
43707;BME280;61348;53.392;-6.248;2023-04-05T12:50:28;100683.72;;;15.04;81.16
43707;BME280;61348;53.392;-6.248;2023-04-05T12:52:57;100683.41;;;15.09;81.29
43707;BME280;61348;53.392;-6.248;2023-04-05T12:55:28;100684.72;;;15.18;81.17
43707;BME280;61348;53.392;-6.248;2023-04-05T12:57:58;100689.63;;;15.29;81.01
43707;BME280;61348;53.392;-6.248;2023-04-05T13:00:29;100688.56;;;15.37;80.81
43707;BME280;61348;53.392;-6.248;2023-04-05T13:02:58;100689.41;;;15.41;80.67
43707;BME280;61348;53.392;-6.248;2023-04-05T13:05:29;100691.44;;;15.44;80.75
43707;BME280;61348;53.392;-6.248;2023-04-05T13:07:57;100698.25;;;15.46;80.59
43707;BME280;61348;53.392;-6.248;2023-04-05T13:10:24;100693.03;;;15.45;80.37
43707;BME280;61348;53.392;-6.248;2023-04-05T13:12:51;100693.75;;;15.38;80.04
43707;BME280;61348;53.392;-6.248;2023-04-05T13:15:18;100703.22;;;15.30;79.92
43707;BME280;61348;53.392;-6.248;2023-04-05T13:17:45;100703.09;;;15.19;80.17
43707;BME280;61348;53.392;-6.248;2023-04-05T13:20:16;100704.53;;;15.10;80.38
43707;BME280;61348;53.392;-6.248;2023-04-05T13:22:44;100704.47;;;15.06;80.49
43707;BME280;61348;53.392;-6.248;2023-04-05T13:25:15;100708.50;;;15.09;80.59
43707;BME280;61348;53.392;-6.248;2023-04-05T13:27:42;100694.59;;;15.12;80.53
43707;BME280;61348;53.392;-6.248;2023-04-05T13:30:09;100701.88;;;15.20;80.48